createdAt,value
2022-12-04T00:00:44.955Z,2.52
2022-12-04T00:01:44.949Z,2.54
2022-12-04T00:02:45.015Z,2.49
2022-12-04T00:03:44.935Z,2.39
2022-12-04T00:04:45.016Z,2.43
2022-12-04T00:05:44.936Z,2.56
2022-12-04T00:06:44.912Z,2.52
2022-12-04T00:07:44.976Z,2.48
2022-12-04T00:08:44.901Z,2.52
2022-12-04T00:09:44.905Z,2.46
2022-12-04T00:10:44.882Z,2.54
2022-12-04T00:11:44.878Z,2.46
2022-12-04T00:12:44.883Z,2.49
2022-12-04T00:13:44.887Z,2.60
2022-12-04T00:15:23.354Z,2.53
2022-12-04T00:15:44.859Z,2.45
2022-12-04T00:16:44.921Z,2.45
2022-12-04T00:17:44.856Z,2.61
2022-12-04T00:18:44.855Z,2.53
2022-12-04T00:19:44.864Z,2.52
2022-12-04T00:20:44.850Z,2.46
2022-12-04T00:21:44.832Z,2.46
2022-12-04T00:22:44.845Z,2.53
2022-12-04T00:23:44.826Z,2.48
2022-12-04T00:24:44.820Z,2.54
2022-12-04T00:25:44.806Z,2.52
2022-12-04T00:26:44.805Z,2.49
2022-12-04T00:27:44.816Z,2.49
2022-12-04T00:28:44.787Z,2.49
2022-12-04T00:29:44.792Z,2.54
2022-12-04T00:30:44.807Z,2.53
2022-12-04T00:31:44.812Z,2.49
2022-12-04T00:32:44.771Z,2.48
2022-12-04T00:33:44.791Z,2.48
2022-12-04T00:34:44.772Z,2.48
2022-12-04T00:35:44.757Z,2.45
2022-12-04T00:36:44.777Z,2.45
2022-12-04T00:37:44.753Z,2.41
2022-12-04T00:38:44.753Z,2.53
2022-12-04T00:39:44.732Z,2.39
2022-12-04T00:40:44.734Z,2.53
2022-12-04T00:41:44.747Z,2.41
2022-12-04T00:42:44.726Z,2.49
2022-12-04T00:43:44.722Z,2.54
2022-12-04T00:44:44.737Z,2.41
2022-12-04T00:45:44.750Z,2.53
2022-12-04T00:46:44.714Z,2.53
2022-12-04T00:47:44.701Z,2.49
2022-12-04T00:48:44.725Z,2.56
2022-12-04T00:49:44.707Z,2.49
2022-12-04T00:50:44.696Z,2.42
2022-12-04T00:51:44.695Z,2.46
2022-12-04T00:52:44.685Z,2.49
2022-12-04T00:53:44.691Z,2.54
2022-12-04T00:54:44.660Z,2.49
2022-12-04T00:55:44.676Z,2.48
2022-12-04T00:56:44.661Z,2.49
2022-12-04T00:57:44.639Z,2.52
2022-12-04T00:58:44.648Z,2.49
2022-12-04T00:59:44.649Z,2.41
2022-12-04T01:00:44.704Z,2.52
2022-12-04T01:01:44.681Z,2.49
2022-12-04T01:02:44.646Z,2.41
2022-12-04T01:03:44.609Z,2.46
2022-12-04T01:04:44.641Z,2.45
2022-12-04T01:05:44.604Z,2.46
2022-12-04T01:06:44.608Z,2.52
2022-12-04T01:07:44.645Z,2.52
2022-12-04T01:08:44.583Z,2.42
2022-12-04T01:09:44.609Z,2.43
2022-12-04T01:10:44.601Z,2.52
2022-12-04T01:11:44.587Z,2.41
2022-12-04T01:12:44.587Z,2.41
2022-12-04T01:13:44.587Z,2.43
2022-12-04T01:14:44.556Z,2.41
2022-12-04T01:15:44.585Z,2.41
2022-12-04T01:16:44.698Z,2.49
2022-12-04T01:17:44.550Z,2.53
2022-12-04T01:18:44.557Z,2.52
2022-12-04T01:19:44.533Z,2.53
2022-12-04T01:20:44.544Z,2.57
2022-12-04T01:21:44.511Z,2.56
2022-12-04T01:22:44.512Z,2.56
2022-12-04T01:23:44.521Z,2.57
2022-12-04T01:24:44.503Z,2.60
2022-12-04T01:25:44.510Z,2.61
2022-12-04T01:26:44.517Z,2.60
2022-12-04T01:27:44.495Z,2.56
2022-12-04T01:28:44.490Z,2.63
2022-12-04T01:29:44.488Z,2.63
2022-12-04T01:30:44.495Z,2.63
2022-12-04T01:31:44.566Z,2.57
2022-12-04T01:32:44.456Z,2.61
2022-12-04T01:33:44.489Z,2.54
2022-12-04T01:34:44.476Z,2.54
2022-12-04T01:35:44.443Z,2.64
2022-12-04T01:36:44.462Z,2.56
2022-12-04T01:37:44.453Z,2.52
2022-12-04T01:38:44.440Z,2.48
2022-12-04T01:39:44.428Z,2.48
2022-12-04T01:40:44.436Z,2.48
2022-12-04T01:41:44.439Z,2.48
2022-12-04T01:42:44.419Z,2.48
2022-12-04T01:43:44.408Z,2.46
2022-12-04T01:44:44.407Z,2.42
2022-12-04T01:45:44.457Z,2.43
2022-12-04T01:46:44.412Z,2.48
2022-12-04T01:47:44.391Z,2.48
2022-12-04T01:48:44.382Z,2.41
2022-12-04T01:49:44.374Z,2.42
2022-12-04T01:50:44.369Z,2.41
2022-12-04T01:51:44.363Z,2.41
2022-12-04T01:52:44.393Z,2.48
2022-12-04T01:53:44.366Z,2.43
2022-12-04T01:54:44.375Z,2.36
2022-12-04T01:55:44.336Z,2.43
2022-12-04T01:56:44.344Z,2.48
2022-12-04T01:57:44.364Z,2.45
2022-12-04T01:58:44.328Z,2.42
2022-12-04T01:59:44.345Z,2.43
2022-12-04T02:00:46.418Z,2.43
2022-12-04T02:01:44.350Z,2.45
2022-12-04T02:02:44.419Z,2.45
2022-12-04T02:03:44.299Z,2.41
2022-12-04T02:04:44.301Z,2.43
2022-12-04T02:05:44.301Z,2.46
2022-12-04T02:06:44.313Z,2.45
2022-12-04T02:07:44.372Z,2.43
2022-12-04T02:08:44.305Z,2.45
2022-12-04T02:09:44.276Z,2.46
2022-12-04T02:10:44.272Z,2.45
2022-12-04T02:11:44.262Z,2.41
2022-12-04T02:12:44.256Z,2.42
2022-12-04T02:13:44.275Z,2.46
2022-12-04T02:14:44.250Z,2.36
2022-12-04T02:15:44.248Z,2.42
2022-12-04T02:16:44.272Z,2.41
2022-12-04T02:17:44.223Z,2.42
2022-12-04T02:18:44.232Z,2.41
2022-12-04T02:19:44.229Z,2.41
2022-12-04T02:20:44.210Z,2.43
2022-12-04T02:21:44.208Z,2.48
2022-12-04T02:22:44.205Z,2.43
2022-12-04T02:23:44.205Z,2.45
2022-12-04T02:24:49.779Z,2.48
2022-12-04T02:25:44.186Z,2.45
2022-12-04T02:26:44.191Z,2.43
2022-12-04T02:27:44.197Z,2.45
2022-12-04T02:28:44.191Z,2.39
2022-12-04T02:29:44.200Z,2.42
2022-12-04T02:30:44.196Z,2.48
2022-12-04T02:31:44.151Z,2.42
2022-12-04T02:32:44.167Z,2.39
2022-12-04T02:33:44.152Z,2.41
2022-12-04T02:34:44.175Z,2.48
2022-12-04T02:35:44.166Z,2.54
2022-12-04T02:36:44.129Z,2.46
2022-12-04T02:37:44.128Z,2.43
2022-12-04T02:38:44.127Z,2.45
2022-12-04T02:39:44.123Z,2.57
2022-12-04T02:40:44.136Z,2.53
2022-12-04T02:41:44.119Z,2.46
2022-12-04T02:42:44.106Z,2.52
2022-12-04T02:43:44.100Z,2.48
2022-12-04T02:44:44.090Z,2.48
2022-12-04T02:47:38.891Z,2.48
2022-12-04T02:48:17.153Z,2.52
2022-12-04T02:49:17.184Z,2.52
2022-12-04T02:50:17.133Z,2.52
2022-12-04T02:51:17.132Z,2.54
2022-12-04T02:52:17.136Z,2.56
2022-12-04T02:53:17.138Z,2.45
2022-12-04T02:54:17.775Z,2.54
2022-12-04T02:55:17.555Z,2.60
2022-12-04T02:56:17.893Z,2.53
2022-12-04T02:57:17.113Z,2.54
2022-12-04T02:58:17.101Z,2.60
2022-12-04T02:59:17.091Z,2.59
2022-12-04T03:00:17.101Z,2.52
2022-12-04T03:01:17.136Z,2.52
2022-12-04T03:02:17.143Z,2.61
2022-12-04T03:03:17.071Z,2.57
2022-12-04T03:04:17.069Z,2.57
2022-12-04T03:05:17.065Z,2.46
2022-12-04T03:06:17.043Z,2.49
2022-12-04T03:07:17.076Z,2.53
2022-12-04T03:08:17.210Z,2.53
2022-12-04T03:09:17.041Z,2.48
2022-12-04T03:10:17.043Z,2.52
2022-12-04T03:11:17.019Z,2.56
2022-12-04T03:12:17.042Z,2.49
2022-12-04T03:13:17.033Z,2.45
2022-12-04T03:14:17.016Z,2.49
2022-12-04T03:15:17.017Z,2.49
2022-12-04T03:16:17.046Z,2.56
2022-12-04T03:17:17.015Z,2.49
2022-12-04T03:18:17.006Z,2.52
2022-12-04T03:19:16.997Z,2.57
2022-12-04T03:20:17.003Z,2.57
2022-12-04T03:21:17.022Z,2.52
2022-12-04T03:22:16.974Z,2.53
2022-12-04T03:23:16.998Z,2.46
2022-12-04T03:24:16.971Z,2.57
2022-12-04T03:25:16.973Z,2.54
2022-12-04T03:26:16.972Z,2.52
2022-12-04T03:27:16.956Z,2.52
2022-12-04T03:28:16.942Z,2.54
2022-12-04T03:29:16.932Z,2.52
2022-12-04T03:30:16.931Z,2.49
2022-12-04T03:31:16.955Z,2.48
2022-12-04T03:32:16.933Z,2.46
2022-12-04T03:33:16.965Z,2.59
2022-12-04T03:34:16.905Z,2.59
2022-12-04T03:35:16.934Z,2.48
2022-12-04T03:36:16.932Z,2.59
2022-12-04T03:37:16.927Z,2.59
2022-12-04T03:38:16.897Z,2.56
2022-12-04T03:39:16.892Z,2.60
2022-12-04T03:40:16.883Z,2.57
2022-12-04T03:41:16.888Z,2.56
2022-12-04T03:42:16.876Z,2.57
2022-12-04T03:43:16.891Z,2.57
2022-12-04T03:44:16.861Z,2.56
2022-12-04T03:45:16.865Z,2.48
2022-12-04T03:46:16.989Z,2.63
2022-12-04T03:47:16.841Z,2.60
2022-12-04T03:48:22.653Z,2.57
2022-12-04T03:49:16.841Z,2.57
2022-12-04T03:50:16.836Z,2.53
2022-12-04T03:51:16.868Z,2.54
2022-12-04T03:52:16.818Z,2.57
2022-12-04T03:53:16.841Z,2.54
2022-12-04T03:54:16.806Z,2.52
2022-12-04T03:55:16.820Z,2.60
2022-12-04T03:56:16.806Z,2.60
2022-12-04T03:57:16.805Z,2.61
2022-12-04T03:58:16.791Z,2.57
2022-12-04T03:59:16.819Z,2.60
2022-12-04T04:00:16.795Z,2.57
2022-12-04T04:01:16.857Z,2.59
2022-12-04T04:02:16.841Z,2.61
2022-12-04T04:03:16.800Z,2.56
2022-12-04T04:04:16.788Z,2.57
2022-12-04T04:05:16.759Z,2.57
2022-12-04T04:06:16.750Z,2.54
2022-12-04T04:07:16.739Z,2.63
2022-12-04T04:08:16.783Z,2.54
2022-12-04T04:09:16.781Z,2.63
2022-12-04T04:10:16.741Z,2.57
2022-12-04T04:11:16.733Z,2.60
2022-12-04T04:12:16.733Z,2.63
2022-12-04T04:13:16.738Z,2.63
2022-12-04T04:14:16.719Z,2.61
2022-12-04T04:15:16.720Z,2.63
2022-12-04T04:16:16.819Z,2.61
2022-12-04T04:17:16.696Z,2.63
2022-12-04T04:18:16.684Z,2.71
2022-12-04T04:19:16.679Z,2.66
2022-12-04T04:20:16.700Z,2.64
2022-12-04T04:21:16.685Z,2.67
2022-12-04T04:22:16.659Z,2.64
2022-12-04T04:23:16.666Z,2.63
2022-12-04T04:24:16.657Z,2.60
2022-12-04T04:25:16.644Z,2.57
2022-12-04T04:26:16.650Z,2.63
2022-12-04T04:27:16.658Z,2.56
2022-12-04T04:28:16.670Z,2.61
2022-12-04T04:29:16.636Z,2.61
2022-12-04T04:30:16.630Z,2.63
2022-12-04T04:31:16.679Z,2.61
2022-12-04T04:32:16.657Z,2.64
2022-12-04T04:33:16.611Z,2.64
2022-12-04T04:34:16.608Z,2.63
2022-12-04T04:35:16.615Z,2.60
2022-12-04T04:36:16.613Z,2.59
2022-12-04T04:37:16.586Z,2.57
2022-12-04T04:38:16.590Z,2.59
2022-12-04T04:39:16.585Z,2.61
2022-12-04T04:40:16.572Z,2.57
2022-12-04T04:41:16.581Z,2.69
2022-12-04T04:42:16.584Z,2.57
2022-12-04T04:43:16.564Z,2.63
2022-12-04T04:44:16.573Z,2.59
2022-12-04T04:45:16.557Z,2.69
2022-12-04T04:46:16.574Z,2.64
2022-12-04T04:47:16.550Z,2.56
2022-12-04T04:48:16.540Z,2.61
2022-12-04T04:49:16.535Z,2.66
2022-12-04T04:50:16.520Z,2.67
2022-12-04T04:51:16.522Z,2.69
2022-12-04T04:52:16.533Z,2.66
2022-12-04T04:53:16.520Z,2.61
2022-12-04T04:54:16.517Z,2.71
2022-12-04T04:55:16.500Z,2.61
2022-12-04T04:56:16.488Z,2.69
2022-12-04T04:57:16.494Z,2.59
2022-12-04T04:58:16.516Z,2.61
2022-12-04T04:59:16.466Z,2.72
2022-12-04T05:00:16.467Z,2.63
2022-12-04T05:01:16.531Z,2.67
2022-12-04T05:02:16.519Z,2.66
2022-12-04T05:03:16.580Z,2.66
2022-12-04T05:04:16.462Z,2.69
2022-12-04T05:05:16.475Z,2.69
2022-12-04T05:06:16.437Z,2.69
2022-12-04T05:07:16.450Z,2.75
2022-12-04T05:08:16.503Z,2.75
2022-12-04T05:09:16.462Z,2.63
2022-12-04T05:10:16.427Z,2.71
2022-12-04T05:11:16.413Z,2.71
2022-12-04T05:12:16.411Z,2.77
2022-12-04T05:13:16.400Z,2.71
2022-12-04T05:14:16.409Z,2.78
2022-12-04T05:15:16.412Z,2.72
2022-12-04T05:16:16.474Z,2.74
2022-12-04T05:17:16.391Z,2.74
2022-12-04T05:18:24.314Z,2.79
2022-12-04T05:19:16.376Z,2.81
2022-12-04T05:20:16.393Z,2.74
2022-12-04T05:21:16.358Z,2.64
2022-12-04T05:22:16.364Z,2.69
2022-12-04T05:23:16.346Z,2.78
2022-12-04T05:24:16.359Z,2.78
2022-12-04T05:25:16.343Z,2.75
2022-12-04T05:26:16.344Z,2.75
2022-12-04T05:27:16.322Z,2.75
2022-12-04T05:28:16.329Z,2.74
2022-12-04T05:29:16.325Z,2.69
2022-12-04T05:30:16.309Z,2.63
2022-12-04T05:31:16.400Z,2.66
2022-12-04T05:32:16.296Z,2.79
2022-12-04T05:33:16.317Z,2.75
2022-12-04T05:34:16.300Z,2.75
2022-12-04T05:35:16.293Z,2.74
2022-12-04T05:36:16.301Z,2.77
2022-12-04T05:37:16.283Z,2.78
2022-12-04T05:38:16.266Z,2.79
2022-12-04T05:39:16.285Z,2.77
2022-12-04T05:40:16.269Z,2.77
2022-12-04T05:41:16.273Z,2.77
2022-12-04T05:42:16.264Z,2.77
2022-12-04T05:43:16.243Z,2.72
2022-12-04T05:44:16.244Z,2.79
2022-12-04T05:45:16.249Z,2.78
2022-12-04T05:46:16.310Z,2.72
2022-12-04T05:47:16.232Z,2.77
2022-12-04T05:48:16.220Z,2.72
2022-12-04T05:49:16.232Z,2.77
2022-12-04T05:50:16.219Z,2.79
2022-12-04T05:51:16.216Z,2.72
2022-12-04T05:52:16.219Z,2.74
2022-12-04T05:53:16.207Z,2.81
2022-12-04T05:54:16.201Z,2.81
2022-12-04T05:55:16.190Z,2.81
2022-12-04T05:56:16.179Z,2.79
2022-12-04T05:57:16.186Z,2.79
2022-12-04T05:58:16.175Z,2.78
2022-12-04T05:59:16.159Z,2.81
2022-12-04T06:00:16.174Z,2.72
2022-12-04T06:01:16.165Z,2.77
2022-12-04T06:02:16.232Z,2.84
2022-12-04T06:03:16.244Z,2.81
2022-12-04T06:04:16.146Z,2.85
2022-12-04T06:05:16.153Z,2.82
2022-12-04T06:06:21.094Z,2.81
2022-12-04T06:07:16.129Z,2.81
2022-12-04T06:08:16.190Z,2.78
2022-12-04T06:09:16.122Z,2.82
2022-12-04T06:10:16.112Z,2.78
2022-12-04T06:11:16.099Z,2.79
2022-12-04T06:12:16.108Z,2.81
2022-12-04T06:13:16.091Z,2.77
2022-12-04T06:14:16.110Z,2.84
2022-12-04T06:15:16.094Z,2.79
2022-12-04T06:16:16.118Z,2.84
2022-12-04T06:17:16.073Z,2.87
2022-12-04T06:18:16.075Z,2.85
2022-12-04T06:19:16.071Z,2.85
2022-12-04T06:20:16.150Z,2.85
2022-12-04T06:21:16.060Z,2.90
2022-12-04T06:22:16.061Z,2.92
2022-12-04T06:23:16.042Z,2.90
2022-12-04T06:24:16.057Z,2.82
2022-12-04T06:25:16.042Z,2.82
2022-12-04T06:26:16.037Z,2.85
2022-12-04T06:27:31.466Z,2.87
2022-12-04T06:28:16.059Z,2.89
2022-12-04T06:29:16.014Z,2.81
2022-12-04T06:30:16.131Z,2.77
2022-12-04T06:31:16.078Z,2.82
2022-12-04T06:32:21.105Z,2.85
2022-12-04T06:33:16.003Z,2.81
2022-12-04T06:34:16.011Z,2.81
2022-12-04T06:35:16.092Z,2.81
2022-12-04T06:36:15.977Z,2.74
2022-12-04T06:37:15.981Z,2.89
2022-12-04T06:38:15.980Z,2.85
2022-12-04T06:39:18.972Z,2.82
2022-12-04T06:40:15.977Z,2.82
2022-12-04T06:41:15.946Z,2.87
2022-12-04T06:42:15.957Z,2.89
2022-12-04T06:43:15.961Z,2.87
2022-12-04T06:44:15.933Z,2.89
2022-12-04T06:45:15.963Z,2.78
2022-12-04T06:46:15.977Z,2.82
2022-12-04T06:47:15.926Z,2.85
2022-12-04T06:48:15.930Z,2.78
2022-12-04T06:49:15.924Z,2.87
2022-12-04T06:50:15.911Z,2.77
2022-12-04T06:51:15.908Z,2.81
2022-12-04T06:52:15.921Z,2.81
2022-12-04T06:53:15.886Z,2.87
2022-12-04T06:54:15.895Z,2.87
2022-12-04T06:55:15.986Z,2.84
2022-12-04T06:56:15.876Z,2.89
2022-12-04T06:57:15.871Z,2.85
2022-12-04T06:58:15.884Z,2.95
2022-12-04T06:59:15.856Z,2.92
2022-12-04T07:00:15.951Z,2.84
2022-12-04T07:01:15.976Z,2.82
2022-12-04T07:02:15.917Z,2.93
2022-12-04T07:03:15.851Z,2.89
2022-12-04T07:04:15.828Z,2.81
2022-12-04T07:05:15.845Z,2.95
2022-12-04T07:06:15.837Z,2.90
2022-12-04T07:07:15.823Z,2.87
2022-12-04T07:08:15.856Z,2.95
2022-12-04T07:09:15.832Z,2.93
2022-12-04T07:10:15.818Z,2.87
2022-12-04T07:11:15.810Z,2.89
2022-12-04T07:12:15.797Z,2.89
2022-12-04T07:13:15.798Z,2.89
2022-12-04T07:14:15.815Z,2.90
2022-12-04T07:15:15.815Z,2.87
2022-12-04T07:16:15.852Z,2.96
2022-12-04T07:17:15.839Z,2.92
2022-12-04T07:18:15.776Z,2.90
2022-12-04T07:19:15.773Z,2.99
2022-12-04T07:20:15.781Z,3.02
2022-12-04T07:21:15.762Z,2.96
2022-12-04T07:22:15.761Z,2.92
2022-12-04T07:23:15.762Z,2.96
2022-12-04T07:24:15.745Z,2.92
2022-12-04T07:25:15.750Z,2.90
2022-12-04T07:26:15.725Z,3.02
2022-12-04T07:27:15.717Z,2.96
2022-12-04T07:28:15.732Z,3.02
2022-12-04T07:29:15.716Z,3.05
2022-12-04T07:30:16.148Z,3.05
2022-12-04T07:31:15.745Z,3.05
2022-12-04T07:32:15.776Z,3.02
2022-12-04T07:33:15.706Z,3.00
2022-12-04T07:34:15.688Z,3.08
2022-12-04T07:35:15.693Z,3.11
2022-12-04T07:36:15.689Z,3.06
2022-12-04T07:37:15.682Z,2.96
2022-12-04T07:38:15.685Z,3.03
2022-12-04T07:39:15.677Z,2.99
2022-12-04T07:40:15.684Z,3.03
2022-12-04T07:41:15.686Z,3.06
2022-12-04T07:42:18.473Z,3.03
2022-12-04T07:43:15.652Z,3.06
2022-12-04T07:44:15.633Z,3.08
2022-12-04T07:45:15.646Z,3.08
2022-12-04T07:46:15.755Z,3.10
2022-12-04T07:47:15.636Z,3.11
2022-12-04T07:48:15.629Z,3.10
2022-12-04T07:49:15.613Z,3.06
2022-12-04T07:50:15.619Z,3.05
2022-12-04T07:51:15.636Z,3.13
2022-12-04T07:52:15.608Z,3.03
2022-12-04T07:53:15.595Z,3.08
2022-12-04T07:54:15.620Z,3.06
2022-12-04T07:55:20.135Z,3.13
2022-12-04T07:56:15.579Z,3.05
2022-12-04T07:57:15.589Z,3.17
2022-12-04T07:58:15.579Z,3.17
2022-12-04T07:59:15.583Z,3.21
2022-12-04T08:00:15.569Z,3.08
2022-12-04T08:01:15.761Z,3.15
2022-12-04T08:02:15.548Z,3.11
2022-12-04T08:03:15.538Z,3.15
2022-12-04T08:04:15.672Z,3.05
2022-12-04T08:05:15.531Z,3.05
2022-12-04T08:06:15.542Z,3.03
2022-12-04T08:07:15.522Z,3.10
2022-12-04T08:08:15.583Z,3.10
2022-12-04T08:09:15.548Z,3.02
2022-12-04T08:10:15.519Z,3.17
2022-12-04T08:11:15.508Z,3.15
2022-12-04T08:12:15.501Z,3.24
2022-12-04T08:13:15.510Z,3.15
2022-12-04T08:14:15.493Z,3.06
2022-12-04T08:15:15.515Z,3.17
2022-12-04T08:16:15.597Z,3.10
2022-12-04T08:17:15.595Z,3.06
2022-12-04T08:18:15.478Z,3.13
2022-12-04T08:19:15.480Z,3.15
2022-12-04T08:20:15.476Z,3.14
2022-12-04T08:21:15.463Z,3.23
2022-12-04T08:22:19.128Z,3.14
2022-12-04T08:23:15.448Z,3.14
2022-12-04T08:24:15.444Z,3.10
2022-12-04T08:25:15.448Z,3.20
2022-12-04T08:26:15.438Z,3.23
2022-12-04T08:27:15.433Z,3.10
2022-12-04T08:28:15.433Z,3.15
2022-12-04T08:29:15.416Z,3.23
2022-12-04T08:30:15.412Z,3.23
2022-12-04T08:31:15.547Z,3.13
2022-12-04T08:32:15.446Z,3.13
2022-12-04T08:33:15.401Z,3.15
2022-12-04T08:34:15.419Z,3.23
2022-12-04T08:35:15.390Z,3.17
2022-12-04T08:36:15.390Z,3.20
2022-12-04T08:37:15.382Z,3.13
2022-12-04T08:38:15.392Z,3.17
2022-12-04T08:39:15.382Z,3.20
2022-12-04T08:40:15.383Z,3.24
2022-12-04T08:41:15.377Z,3.23
2022-12-04T08:42:15.390Z,3.23
2022-12-04T08:43:15.366Z,3.20
2022-12-04T08:44:15.365Z,3.32
2022-12-04T08:45:15.354Z,3.23
2022-12-04T08:46:15.388Z,3.26
2022-12-04T08:47:15.363Z,3.26
2022-12-04T08:48:15.350Z,3.21
2022-12-04T08:49:15.323Z,3.29
2022-12-04T08:50:15.324Z,3.28
2022-12-04T08:51:15.325Z,3.32
2022-12-04T08:52:15.307Z,3.36
2022-12-04T08:53:15.324Z,3.40
2022-12-04T08:54:15.308Z,3.32
2022-12-04T08:55:15.295Z,3.39
2022-12-04T08:56:15.289Z,3.26
2022-12-04T08:57:15.357Z,3.35
2022-12-04T08:58:15.288Z,3.36
2022-12-04T08:59:15.298Z,3.26
2022-12-04T09:00:15.285Z,3.36
2022-12-04T09:01:15.341Z,3.35
2022-12-04T09:02:15.256Z,3.40
2022-12-04T09:03:15.261Z,3.39
2022-12-04T09:04:15.341Z,3.45
2022-12-04T09:05:15.259Z,3.39
2022-12-04T09:06:15.241Z,3.42
2022-12-04T09:07:15.238Z,3.42
2022-12-04T09:08:15.303Z,3.35
2022-12-04T09:09:15.256Z,3.32
2022-12-04T09:10:15.224Z,3.39
2022-12-04T09:11:15.228Z,3.36
2022-12-04T09:12:15.224Z,3.35
2022-12-04T09:13:15.207Z,3.40
2022-12-04T09:14:15.218Z,3.39
2022-12-04T09:15:15.229Z,3.42
2022-12-04T09:16:15.257Z,3.39
2022-12-04T09:17:15.201Z,3.39
2022-12-04T09:18:15.202Z,3.39
2022-12-04T09:19:15.212Z,3.39
2022-12-04T09:20:15.192Z,3.42
2022-12-04T09:21:15.198Z,3.39
2022-12-04T09:22:15.176Z,3.42
2022-12-04T09:23:15.162Z,3.39
2022-12-04T09:24:15.174Z,3.32
2022-12-04T09:25:15.165Z,3.36
2022-12-04T09:26:15.173Z,3.35
2022-12-04T09:27:15.291Z,3.39
2022-12-04T09:28:15.155Z,3.39
2022-12-04T09:29:15.144Z,3.54
2022-12-04T09:30:15.135Z,3.48
2022-12-04T09:31:15.213Z,3.45
2022-12-04T09:32:15.129Z,3.40
2022-12-04T09:33:15.136Z,3.50
2022-12-04T09:34:15.108Z,3.48
2022-12-04T09:35:15.107Z,3.54
2022-12-04T09:36:15.107Z,3.50
2022-12-04T09:37:15.112Z,3.52
2022-12-04T09:38:15.108Z,3.43
2022-12-04T09:39:15.113Z,3.50
2022-12-04T09:40:15.078Z,3.48
2022-12-04T09:41:15.085Z,3.51
2022-12-04T09:42:15.083Z,3.48
2022-12-04T09:43:15.076Z,3.51
2022-12-04T09:44:15.089Z,3.48
2022-12-04T09:45:15.067Z,3.54
2022-12-04T09:46:15.114Z,3.52
2022-12-04T09:47:15.057Z,3.57
2022-12-04T09:48:15.059Z,3.51
2022-12-04T09:49:15.057Z,3.55
2022-12-04T09:50:15.036Z,3.52
2022-12-04T09:51:15.031Z,3.57
2022-12-04T09:52:20.293Z,3.60
2022-12-04T09:53:15.033Z,3.57
2022-12-04T09:54:15.013Z,3.50
2022-12-04T09:55:15.013Z,3.58
2022-12-04T09:56:15.025Z,3.54
2022-12-04T09:57:15.014Z,3.60
2022-12-04T09:58:14.996Z,3.58
2022-12-04T09:59:15.007Z,3.55
2022-12-04T10:00:14.996Z,3.57
2022-12-04T10:01:14.996Z,3.60
2022-12-04T10:02:15.020Z,3.54
2022-12-04T10:03:15.115Z,3.51
2022-12-04T10:04:15.063Z,3.61
2022-12-04T10:05:14.977Z,3.60
2022-12-04T10:06:14.955Z,3.65
2022-12-04T10:07:14.955Z,3.69
2022-12-04T10:08:15.030Z,3.69
2022-12-04T10:09:15.043Z,3.70
2022-12-04T10:10:14.944Z,3.78
2022-12-04T10:11:14.961Z,3.72
2022-12-04T10:12:14.950Z,3.57
2022-12-04T10:13:14.940Z,3.70
2022-12-04T10:14:14.944Z,3.69
2022-12-04T10:15:14.918Z,3.76
2022-12-04T10:16:15.019Z,3.72
2022-12-04T10:17:14.911Z,3.68
2022-12-04T10:18:14.906Z,3.70
2022-12-04T10:19:14.913Z,3.68
2022-12-04T10:20:14.914Z,3.83
2022-12-04T10:21:14.903Z,3.72
2022-12-04T10:22:14.894Z,3.70
2022-12-04T10:23:14.883Z,3.70
2022-12-04T10:24:14.875Z,3.70
2022-12-04T10:25:14.900Z,3.75
2022-12-04T10:26:14.882Z,3.78
2022-12-04T10:27:14.875Z,3.70
2022-12-04T10:28:14.871Z,3.70
2022-12-04T10:29:14.874Z,3.75
2022-12-04T10:30:14.864Z,3.68
2022-12-04T10:31:14.900Z,3.75
2022-12-04T10:32:14.843Z,3.68
2022-12-04T10:33:14.851Z,3.73
2022-12-04T10:34:14.831Z,3.68
2022-12-04T10:35:14.839Z,3.68
2022-12-04T10:36:14.841Z,3.66
2022-12-04T10:37:14.829Z,3.68
2022-12-04T10:38:14.843Z,3.68
2022-12-04T10:39:14.819Z,3.76
2022-12-04T10:40:14.811Z,3.72
2022-12-04T10:41:15.376Z,3.75
2022-12-04T10:42:14.825Z,3.78
2022-12-04T10:43:14.802Z,3.70
2022-12-04T10:44:14.804Z,3.76
2022-12-04T10:45:14.793Z,3.79
2022-12-04T10:46:14.829Z,3.86
2022-12-04T10:47:14.898Z,3.76
2022-12-04T10:48:14.769Z,3.78
2022-12-04T10:49:14.800Z,3.90
2022-12-04T10:50:14.777Z,3.87
2022-12-04T10:51:14.772Z,3.86
2022-12-04T10:52:14.762Z,3.86
2022-12-04T10:53:14.748Z,3.84
2022-12-04T10:54:14.740Z,3.87
2022-12-04T10:55:14.767Z,3.88
2022-12-04T10:56:14.754Z,3.87
2022-12-04T10:57:14.740Z,3.87
2022-12-04T10:58:14.749Z,3.86
2022-12-04T10:59:14.727Z,3.91
2022-12-04T11:00:14.710Z,3.84
2022-12-04T11:01:14.722Z,3.86
2022-12-04T11:02:14.800Z,3.87
2022-12-04T11:03:14.737Z,3.93
2022-12-04T11:04:14.724Z,3.91
2022-12-04T11:05:14.697Z,4.00
2022-12-04T11:06:14.713Z,4.00
2022-12-04T11:07:14.680Z,4.02
2022-12-04T11:08:19.712Z,3.93
2022-12-04T11:09:14.695Z,3.94
2022-12-04T11:10:14.690Z,3.94
2022-12-04T11:11:14.677Z,3.96
2022-12-04T11:12:14.676Z,3.97
2022-12-04T11:13:14.665Z,3.97
2022-12-04T11:14:14.656Z,4.00
2022-12-04T11:15:14.902Z,3.98
2022-12-04T11:16:14.663Z,4.04
2022-12-04T11:17:14.643Z,3.94
2022-12-04T11:18:14.631Z,3.97
2022-12-04T11:19:14.624Z,3.96
2022-12-04T11:20:14.637Z,3.96
2022-12-04T11:21:14.642Z,4.00
2022-12-04T11:22:14.616Z,3.91
2022-12-04T11:23:14.605Z,3.91
2022-12-04T11:24:14.608Z,3.91
2022-12-04T11:25:14.608Z,3.96
2022-12-04T11:26:14.607Z,3.87
2022-12-04T11:27:14.600Z,3.94
2022-12-04T11:28:33.604Z,3.91
2022-12-04T11:29:14.586Z,3.91
2022-12-04T11:30:14.575Z,3.94
2022-12-04T11:31:14.630Z,3.93
2022-12-04T11:32:14.601Z,3.90
2022-12-04T11:33:14.573Z,3.94
2022-12-04T11:34:14.577Z,3.94
2022-12-04T11:35:14.630Z,3.91
2022-12-04T11:36:14.578Z,4.00
2022-12-04T11:37:14.568Z,3.97
2022-12-04T11:38:14.556Z,4.00
2022-12-04T11:39:14.551Z,3.98
2022-12-04T11:40:14.547Z,3.98
2022-12-04T11:41:14.534Z,3.97
2022-12-04T11:42:14.556Z,4.02
2022-12-04T11:43:14.533Z,3.96
2022-12-04T11:44:14.524Z,4.00
2022-12-04T11:45:14.512Z,4.00
2022-12-04T11:46:14.561Z,4.00
2022-12-04T11:47:14.579Z,4.04
2022-12-04T11:48:14.503Z,3.96
2022-12-04T11:49:14.490Z,4.02
2022-12-04T11:50:14.509Z,4.05
2022-12-04T11:51:14.498Z,4.04
2022-12-04T11:52:14.507Z,4.00
2022-12-04T11:53:14.495Z,3.97
2022-12-04T11:54:14.488Z,3.94
2022-12-04T11:55:14.466Z,4.02
2022-12-04T11:56:14.476Z,3.98
2022-12-04T11:57:14.466Z,3.94
2022-12-04T11:58:14.467Z,4.00
2022-12-04T11:59:14.454Z,4.00
2022-12-04T12:00:14.446Z,4.05
2022-12-04T12:01:14.450Z,4.00
2022-12-04T12:02:14.554Z,3.96
2022-12-04T12:03:14.588Z,4.04
2022-12-04T12:04:14.439Z,4.05
2022-12-04T12:05:14.420Z,4.00
2022-12-04T12:06:14.429Z,4.00
2022-12-04T12:07:14.443Z,4.05
2022-12-04T12:08:14.420Z,4.11
2022-12-04T12:09:14.442Z,4.08
2022-12-04T12:10:14.428Z,4.05
2022-12-04T12:11:14.399Z,4.09
2022-12-04T12:12:14.412Z,4.09
2022-12-04T12:13:14.388Z,4.00
2022-12-04T12:14:14.485Z,4.00
2022-12-04T12:15:14.393Z,4.09
2022-12-04T12:16:14.408Z,4.15
2022-12-04T12:17:14.384Z,3.98
2022-12-04T12:18:16.511Z,4.09
2022-12-04T12:19:14.362Z,4.08
2022-12-04T12:20:14.380Z,4.08
2022-12-04T12:21:15.328Z,4.11
2022-12-04T12:22:14.396Z,4.06
2022-12-04T12:23:14.401Z,4.11
2022-12-04T12:24:14.377Z,4.12
2022-12-04T12:25:14.473Z,3.98
2022-12-04T12:26:14.824Z,4.09
2022-12-04T12:27:17.510Z,4.08
2022-12-04T12:29:15.353Z,4.11
2022-12-04T12:31:15.898Z,4.06
2022-12-04T12:32:22.829Z,4.11
2022-12-04T12:33:17.836Z,4.08
2022-12-04T12:34:16.328Z,4.06
2022-12-04T12:35:14.340Z,4.06
2022-12-04T12:36:15.093Z,4.15
2022-12-04T12:37:19.356Z,4.14
2022-12-04T12:38:14.492Z,4.20
2022-12-04T12:39:18.884Z,4.08
2022-12-04T12:40:14.828Z,4.18
2022-12-04T12:41:15.852Z,4.14
2022-12-04T12:42:20.373Z,4.18
2022-12-04T12:43:15.412Z,4.18
2022-12-04T12:44:16.408Z,4.09
2022-12-04T12:45:22.363Z,4.09
2022-12-04T12:46:18.443Z,4.14
2022-12-04T12:47:14.279Z,4.11
2022-12-04T12:48:14.287Z,4.16
2022-12-04T12:49:15.304Z,4.18
2022-12-04T12:50:14.322Z,4.27
2022-12-04T12:51:29.536Z,4.11
2022-12-04T12:52:15.339Z,4.12
2022-12-04T12:53:18.351Z,4.08
2022-12-04T12:54:17.334Z,4.12
2022-12-04T12:55:18.356Z,4.22
2022-12-04T12:56:36.370Z,4.08
2022-12-04T12:57:14.217Z,4.11
2022-12-04T12:58:14.322Z,4.08
2022-12-04T12:59:15.865Z,4.16
2022-12-04T13:00:17.258Z,4.12
2022-12-04T13:01:16.909Z,4.18
2022-12-04T13:02:15.903Z,4.26
2022-12-04T13:03:15.832Z,4.23
2022-12-04T13:04:14.866Z,4.27
2022-12-04T13:05:14.249Z,4.27
2022-12-04T13:06:15.654Z,4.20
2022-12-04T13:07:19.335Z,4.15
2022-12-04T13:08:14.389Z,4.20
2022-12-04T13:09:15.181Z,4.14
2022-12-04T13:10:14.154Z,4.16
2022-12-04T13:11:14.152Z,4.16
2022-12-04T13:12:14.145Z,4.23
2022-12-04T13:13:14.138Z,4.26
2022-12-04T13:14:14.172Z,4.24
2022-12-04T13:15:14.869Z,4.26
2022-12-04T13:16:14.260Z,4.33
2022-12-04T13:17:14.126Z,4.26
2022-12-04T13:18:17.852Z,4.26
2022-12-04T13:19:16.843Z,4.34
2022-12-04T13:20:17.689Z,4.26
2022-12-04T13:21:18.897Z,4.30
2022-12-04T13:23:16.868Z,4.33